Time;durP1;ratioP1;P1;durP2;ratioP2;P2;SDS_P1;SDS_P2;PMS_P1;PMS_P2;Temp;Humidity;BMP_temperature;BMP_pressure;BME280_temperature;BME280_humidity;BME280_pressure;Samples;Min_cycle;Max_cycle;Signal;HPM_P1;HPM_P2
2021/12/28 00:00:45;;;;;;;51.17;15.38;;;;;;;;;;5008537;28;20374;-72
2021/12/28 00:03:10;;;;;;;52.53;14.38;;;;;;;;;;4996726;28;20042;-74
2021/12/28 00:05:35;;;;;;;47.90;18.30;;;;;;;;;;5000218;28;20085;-74
2021/12/28 00:08:01;;;;;;;61.03;18.13;;;;;;;;;;4999892;28;20044;-74
2021/12/28 00:10:26;;;;;;;63.23;17.23;;;;;;;;;;5004814;28;20391;-74
2021/12/28 00:12:54;;;;;;;66.67;16.37;;;;;;;;;;5001543;28;20018;-75
2021/12/28 00:15:33;;;;;;;53.40;15.57;;;;;;;;;;5007793;28;20033;-72
2021/12/28 00:18:03;;;;;;;88.50;19.05;;;;;;;;;;5009206;28;20057;-72
2021/12/28 00:20:32;;;;;;;57.05;18.00;;;;;;;;;;5027085;28;20029;-71
2021/12/28 00:22:58;;;;;;;63.47;16.27;;;;;;;;;;5022658;28;20042;-75
2021/12/28 00:25:24;;;;;;;67.72;16.98;;;;;;;;;;4994995;28;20034;-74
2021/12/28 00:27:50;;;;;;;54.80;15.68;;;;;;;;;;5002282;28;20056;-74
2021/12/28 00:30:16;;;;;;;62.40;15.30;;;;;;;;;;5016280;28;20062;-74
2021/12/28 00:32:42;;;;;;;60.17;16.63;;;;;;;;;;5019894;28;20034;-74
2021/12/28 00:35:08;;;;;;;63.85;15.93;;;;;;;;;;4999751;28;20049;-75
2021/12/28 00:37:34;;;;;;;62.47;17.58;;;;;;;;;;5003586;28;20041;-75
2021/12/28 00:39:59;;;;;;;64.50;16.00;;;;;;;;;;4999554;28;20038;-74
2021/12/28 00:42:25;;;;;;;55.87;15.47;;;;;;;;;;5005013;28;20055;-72
2021/12/28 00:44:50;;;;;;;144.80;21.67;;;;;;;;;;5006978;28;20091;-71
2021/12/28 00:47:16;;;;;;;134.13;19.77;;;;;;;;;;5003917;28;20030;-72
2021/12/28 00:49:41;;;;;;;59.30;16.20;;;;;;;;;;5028327;28;20025;-72
2021/12/28 00:52:07;;;;;;;51.40;14.37;;;;;;;;;;5021920;28;20073;-72
2021/12/28 00:54:32;;;;;;;47.50;15.40;;;;;;;;;;5006099;28;20390;-71
2021/12/28 00:56:58;;;;;;;47.03;14.47;;;;;;;;;;5001129;28;20072;-72
2021/12/28 00:59:23;;;;;;;57.67;15.80;;;;;;;;;;5001635;28;20030;-72
2021/12/28 01:01:48;;;;;;;44.73;15.23;;;;;;;;;;5003579;28;20374;-74
2021/12/28 01:04:14;;;;;;;64.33;14.67;;;;;;;;;;4998380;28;20030;-74
2021/12/28 01:06:41;;;;;;;58.63;14.95;;;;;;;;;;4997899;28;20049;-74
2021/12/28 01:09:06;;;;;;;50.78;13.38;;;;;;;;;;5017692;28;20022;-74
2021/12/28 01:11:32;;;;;;;56.10;14.90;;;;;;;;;;5003324;28;20494;-74
2021/12/28 01:13:57;;;;;;;53.13;12.87;;;;;;;;;;5011706;28;20037;-72
2021/12/28 01:16:22;;;;;;;36.93;12.23;;;;;;;;;;5004156;28;20022;-71
2021/12/28 01:18:48;;;;;;;59.17;12.87;;;;;;;;;;5025414;28;20037;-72
2021/12/28 01:21:13;;;;;;;35.73;11.40;;;;;;;;;;5004236;28;20029;-71
2021/12/28 01:23:39;;;;;;;41.23;11.00;;;;;;;;;;5008469;28;20046;-72
2021/12/28 01:26:04;;;;;;;28.47;10.60;;;;;;;;;;4998323;28;20040;-72
2021/12/28 01:28:30;;;;;;;31.03;9.30;;;;;;;;;;4997928;28;20041;-71
2021/12/28 01:30:55;;;;;;;39.97;11.77;;;;;;;;;;5002495;28;20390;-75
2021/12/28 01:33:21;;;;;;;42.87;11.17;;;;;;;;;;4999235;28;20030;-74
2021/12/28 01:35:46;;;;;;;28.57;9.30;;;;;;;;;;5005969;28;20462;-74
2021/12/28 01:38:12;;;;;;;31.77;9.50;;;;;;;;;;5007512;28;20034;-74
2021/12/28 01:40:40;;;;;;;27.57;8.70;;;;;;;;;;5004602;28;20370;-74
2021/12/28 01:43:12;;;;;;;40.65;9.27;;;;;;;;;;5005792;28;20030;-74
2021/12/28 01:45:39;;;;;;;402.95;33.67;;;;;;;;;;5001166;28;20026;-74
2021/12/28 01:48:05;;;;;;;;;;;;;;;;;;5016027;28;20042;-74
2021/12/28 01:50:31;;;;;;;44.63;12.68;;;;;;;;;;5001097;28;19917;-71
2021/12/28 01:52:57;;;;;;;37.10;11.43;;;;;;;;;;5018767;28;20031;-72
2021/12/28 01:55:22;;;;;;;30.57;11.33;;;;;;;;;;4997166;28;20049;-73
2021/12/28 01:57:48;;;;;;;38.70;10.13;;;;;;;;;;4997317;28;20061;-71
2021/12/28 02:00:14;;;;;;;37.27;12.13;;;;;;;;;;4999529;28;20035;-71
2021/12/28 02:02:39;;;;;;;44.17;13.27;;;;;;;;;;4996015;28;20068;-72
2021/12/28 02:05:05;;;;;;;33.53;11.73;;;;;;;;;;4995881;28;20070;-72
2021/12/28 02:07:31;;;;;;;41.93;11.93;;;;;;;;;;4994222;28;20097;-71
2021/12/28 02:09:56;;;;;;;39.37;12.87;;;;;;;;;;5001749;28;20030;-72
2021/12/28 02:12:22;;;;;;;39.47;11.17;;;;;;;;;;5003239;28;20034;-71
2021/12/28 02:14:48;;;;;;;33.03;10.57;;;;;;;;;;5008094;28;20101;-71
2021/12/28 02:17:14;;;;;;;36.30;10.13;;;;;;;;;;4998143;28;20453;-71
2021/12/28 02:19:40;;;;;;;35.03;11.50;;;;;;;;;;4999636;28;20051;-71
2021/12/28 02:22:06;;;;;;;36.20;10.63;;;;;;;;;;5000246;28;20034;-72
2021/12/28 02:24:31;;;;;;;30.80;10.27;;;;;;;;;;5004061;28;20367;-72
2021/12/28 02:26:56;;;;;;;27.73;8.80;;;;;;;;;;5000892;28;20049;-72
2021/12/28 02:29:22;;;;;;;32.83;9.60;;;;;;;;;;5005984;28;20026;-71
2021/12/28 02:31:50;;;;;;;31.73;9.63;;;;;;;;;;5008224;28;20030;-71
2021/12/28 02:34:16;;;;;;;33.65;8.38;;;;;;;;;;5008243;28;20483;-72
2021/12/28 02:36:41;;;;;;;29.93;9.50;;;;;;;;;;5008042;28;20026;-71
2021/12/28 02:39:07;;;;;;;20.33;7.37;;;;;;;;;;5011253;28;20034;-74
2021/12/28 02:41:32;;;;;;;13.17;4.90;;;;;;;;;;5019318;28;20034;-73
2021/12/28 02:44:00;;;;;;;10.63;4.63;;;;;;;;;;5007212;28;20506;-73
2021/12/28 02:46:25;;;;;;;15.43;5.00;;;;;;;;;;5018229;28;20085;-73
2021/12/28 02:48:51;;;;;;;9.87;3.93;;;;;;;;;;5008500;28;20042;-73
2021/12/28 02:51:16;;;;;;;12.83;4.67;;;;;;;;;;5015606;28;20054;-73
2021/12/28 02:53:44;;;;;;;15.40;4.30;;;;;;;;;;5015021;28;20121;-72
2021/12/28 02:56:11;;;;;;;14.85;5.13;;;;;;;;;;5004065;28;20041;-73
2021/12/28 02:58:42;;;;;;;13.52;4.53;;;;;;;;;;5009204;28;20030;-73
2021/12/28 03:01:10;;;;;;;15.90;4.63;;;;;;;;;;5010984;28;20057;-72
2021/12/28 03:03:36;;;;;;;32.88;9.35;;;;;;;;;;5008801;28;20038;-73
2021/12/28 03:06:04;;;;;;;37.97;10.30;;;;;;;;;;5007764;28;20045;-74
2021/12/28 03:08:30;;;;;;;19.60;5.78;;;;;;;;;;5011218;28;20042;-73
2021/12/28 03:11:00;;;;;;;15.82;4.80;;;;;;;;;;5009025;28;20088;-74
2021/12/28 03:13:29;;;;;;;14.98;4.80;;;;;;;;;;5022732;28;20038;-73
2021/12/28 03:15:55;;;;;;;12.18;3.53;;;;;;;;;;5025222;28;20030;-74
2021/12/28 03:18:21;;;;;;;7.80;3.63;;;;;;;;;;4998860;28;20470;-73
2021/12/28 03:20:47;;;;;;;15.33;4.47;;;;;;;;;;5002067;28;20483;-73
2021/12/28 03:23:15;;;;;;;11.87;3.97;;;;;;;;;;4996028;28;20046;-73
2021/12/28 03:25:40;;;;;;;14.93;4.63;;;;;;;;;;5002197;28;20034;-73
2021/12/28 03:28:06;;;;;;;19.00;5.83;;;;;;;;;;4998955;28;20520;-73
2021/12/28 03:30:31;;;;;;;19.17;5.83;;;;;;;;;;4997264;28;20029;-73
2021/12/28 03:32:57;;;;;;;17.90;5.27;;;;;;;;;;5001609;28;20041;-73
2021/12/28 03:35:23;;;;;;;23.27;6.07;;;;;;;;;;5004326;28;20070;-73
2021/12/28 03:37:48;;;;;;;18.23;6.80;;;;;;;;;;5000418;28;20027;-73
2021/12/28 03:40:15;;;;;;;38.63;8.33;;;;;;;;;;5003558;28;20042;-73
2021/12/28 03:42:41;;;;;;;;;;;;;;;;;;5005390;28;20037;-73
2021/12/28 03:45:08;;;;;;;21.48;8.05;;;;;;;;;;5003167;28;19920;-75
2021/12/28 03:47:33;;;;;;;22.25;7.50;;;;;;;;;;5014257;28;20041;-75
2021/12/28 03:49:59;;;;;;;20.90;7.13;;;;;;;;;;4999563;28;20041;-75
2021/12/28 03:52:24;;;;;;;24.40;6.80;;;;;;;;;;5019623;28;20025;-75
2021/12/28 03:54:50;;;;;;;17.63;7.03;;;;;;;;;;5014542;28;20035;-75
2021/12/28 03:57:15;;;;;;;19.77;6.20;;;;;;;;;;5004818;28;20041;-73
2021/12/28 03:59:41;;;;;;;22.63;6.87;;;;;;;;;;4998898;28;20026;-73
2021/12/28 04:02:06;;;;;;;19.13;6.20;;;;;;;;;;4998691;28;20042;-73
2021/12/28 04:04:32;;;;;;;13.27;5.10;;;;;;;;;;4997545;28;20030;-73
2021/12/28 04:06:57;;;;;;;15.53;5.67;;;;;;;;;;5001371;28;20034;-73
2021/12/28 04:09:45;;;;;;;12.00;4.47;;;;;;;;;;5000910;28;20061;-74
2021/12/28 04:12:08;;;;;;;10.63;4.57;;;;;;;;;;5007461;28;20132;-74
2021/12/28 04:14:33;;;;;;;12.67;4.23;;;;;;;;;;5004895;28;20591;-73
2021/12/28 04:16:59;;;;;;;11.97;4.27;;;;;;;;;;5016244;28;20056;-73
2021/12/28 04:19:24;;;;;;;10.47;3.50;;;;;;;;;;5001652;28;20037;-73
2021/12/28 04:21:50;;;;;;;15.60;4.20;;;;;;;;;;4999135;28;20088;-73
2021/12/28 04:24:15;;;;;;;12.97;4.87;;;;;;;;;;4995234;28;20407;-73
2021/12/28 04:26:40;;;;;;;12.80;4.30;;;;;;;;;;5003070;28;20383;-73
2021/12/28 04:29:06;;;;;;;20.20;4.77;;;;;;;;;;5005268;28;20037;-73
2021/12/28 04:31:32;;;;;;;12.80;5.47;;;;;;;;;;5004860;28;20453;-75
2021/12/28 04:33:58;;;;;;;16.88;5.93;;;;;;;;;;5003137;28;20028;-76
2021/12/28 04:36:23;;;;;;;18.67;7.00;;;;;;;;;;5003975;28;20042;-75
2021/12/28 04:38:49;;;;;;;26.77;7.37;;;;;;;;;;5010425;28;20034;-75
2021/12/28 04:41:14;;;;;;;26.00;8.40;;;;;;;;;;5006293;28;20030;-75
2021/12/28 04:43:40;;;;;;;23.80;7.60;;;;;;;;;;5000011;28;20038;-72
2021/12/28 04:46:06;;;;;;;18.73;6.67;;;;;;;;;;4999098;28;20049;-72
2021/12/28 04:48:32;;;;;;;29.20;7.90;;;;;;;;;;4997331;28;20026;-72
2021/12/28 04:50:58;;;;;;;23.45;8.55;;;;;;;;;;5010189;28;20034;-72
2021/12/28 04:53:23;;;;;;;19.33;6.53;;;;;;;;;;5015680;28;20042;-72
2021/12/28 04:55:50;;;;;;;17.10;5.60;;;;;;;;;;5010397;28;20018;-72
2021/12/28 04:58:16;;;;;;;17.45;6.20;;;;;;;;;;5025636;28;20474;-72
2021/12/28 05:00:43;;;;;;;28.30;7.87;;;;;;;;;;5001779;28;20057;-73
2021/12/28 05:03:08;;;;;;;;;;;;;;;;;;5023793;28;20609;-72
2021/12/28 05:05:35;;;;;;;15.73;5.20;;;;;;;;;;5006616;28;19913;-72
2021/12/28 05:08:03;;;;;;;16.98;5.55;;;;;;;;;;5010086;28;20046;-72
2021/12/28 05:10:28;;;;;;;14.32;4.97;;;;;;;;;;5000714;28;20038;-72
2021/12/28 05:12:54;;;;;;;9.33;3.70;;;;;;;;;;4997388;28;20072;-72
2021/12/28 05:15:19;;;;;;;9.93;4.30;;;;;;;;;;5018921;28;20100;-72
2021/12/28 05:17:45;;;;;;;13.93;4.97;;;;;;;;;;5019276;28;20018;-72
2021/12/28 05:20:11;;;;;;;4.60;1.57;;;;;;;;;;4997372;28;20042;-72
2021/12/28 05:22:36;;;;;;;5.55;1.30;;;;;;;;;;4999779;28;20046;-72
2021/12/28 05:25:03;;;;;;;3.07;1.03;;;;;;;;;;5001509;28;20058;-73
2021/12/28 05:27:29;;;;;;;3.38;0.82;;;;;;;;;;5003364;28;20097;-73
2021/12/28 05:29:54;;;;;;;3.83;0.70;;;;;;;;;;5002818;28;20042;-72
2021/12/28 05:32:19;;;;;;;9.00;1.13;;;;;;;;;;5004997;28;20045;-72
2021/12/28 05:34:45;;;;;;;2.37;0.60;;;;;;;;;;5009363;28;20033;-72
2021/12/28 05:37:10;;;;;;;1.40;0.90;;;;;;;;;;5005940;28;20066;-73
2021/12/28 05:39:36;;;;;;;3.13;0.70;;;;;;;;;;5002770;28;20086;-72
2021/12/28 05:42:03;;;;;;;4.77;0.70;;;;;;;;;;5009741;28;20056;-72
2021/12/28 05:44:28;;;;;;;4.00;0.90;;;;;;;;;;5014159;28;20045;-72
2021/12/28 05:46:54;;;;;;;3.23;0.80;;;;;;;;;;4995342;28;20042;-72
2021/12/28 05:49:21;;;;;;;3.65;1.40;;;;;;;;;;5024808;28;20493;-72
2021/12/28 05:51:46;;;;;;;3.63;2.03;;;;;;;;;;5020391;28;20086;-72
2021/12/28 05:54:12;;;;;;;4.30;0.50;;;;;;;;;;5020478;28;20038;-72
2021/12/28 05:56:38;;;;;;;6.77;2.00;;;;;;;;;;5014672;28;20482;-72
2021/12/28 05:59:03;;;;;;;3.63;1.10;;;;;;;;;;4996110;28;20060;-72
2021/12/28 06:01:29;;;;;;;6.03;1.50;;;;;;;;;;5012506;28;20032;-74
2021/12/28 06:03:54;;;;;;;2.40;0.60;;;;;;;;;;5028933;28;20038;-75
2021/12/28 06:06:20;;;;;;;1.60;0.70;;;;;;;;;;5003036;28;20034;-74
2021/12/28 06:08:45;;;;;;;1.23;0.30;;;;;;;;;;5009556;28;20075;-75
2021/12/28 06:11:13;;;;;;;1.57;0.40;;;;;;;;;;5004031;28;20117;-74
2021/12/28 06:13:40;;;;;;;1.23;0.47;;;;;;;;;;5010928;28;20034;-72
2021/12/28 06:16:09;;;;;;;1.20;0.40;;;;;;;;;;5009603;28;20033;-72
2021/12/28 06:18:34;;;;;;;5.63;0.68;;;;;;;;;;5009991;28;20497;-72
2021/12/28 06:21:00;;;;;;;4.73;1.50;;;;;;;;;;5003405;28;20038;-73
2021/12/28 06:23:25;;;;;;;2.93;0.90;;;;;;;;;;4998088;28;21020;-72
2021/12/28 06:25:50;;;;;;;8.17;1.03;;;;;;;;;;4999910;28;20413;-72
2021/12/28 06:28:16;;;;;;;8.53;1.30;;;;;;;;;;5010176;28;20038;-72
2021/12/28 06:30:42;;;;;;;10.93;2.22;;;;;;;;;;5004222;28;20491;-72
2021/12/28 06:33:08;;;;;;;6.10;1.47;;;;;;;;;;5000844;28;20038;-72
2021/12/28 06:35:34;;;;;;;8.20;1.50;;;;;;;;;;5000585;28;20479;-72
2021/12/28 06:37:59;;;;;;;10.33;1.50;;;;;;;;;;5000855;28;20022;-72
2021/12/28 06:40:25;;;;;;;16.17;2.00;;;;;;;;;;5006264;28;20395;-72
2021/12/28 06:42:50;;;;;;;12.43;1.67;;;;;;;;;;5021747;28;20034;-72
2021/12/28 06:45:16;;;;;;;19.33;2.13;;;;;;;;;;5028308;28;20121;-72
2021/12/28 06:47:41;;;;;;;17.20;2.13;;;;;;;;;;5025550;28;20121;-72
2021/12/28 06:50:08;;;;;;;24.33;2.80;;;;;;;;;;5011168;28;20471;-73
2021/12/28 06:52:33;;;;;;;19.30;2.42;;;;;;;;;;5004007;28;20119;-72
2021/12/28 06:54:59;;;;;;;20.30;3.23;;;;;;;;;;5006747;28;20128;-72
2021/12/28 06:57:25;;;;;;;32.43;4.07;;;;;;;;;;5014742;28;20438;-72
2021/12/28 06:59:50;;;;;;;16.20;2.93;;;;;;;;;;4997157;28;20042;-72
2021/12/28 07:02:17;;;;;;;24.37;5.67;;;;;;;;;;5000770;28;20046;-72
2021/12/28 07:04:43;;;;;;;19.33;2.50;;;;;;;;;;4999016;28;20039;-72
2021/12/28 07:07:08;;;;;;;20.37;3.27;;;;;;;;;;5015255;28;20038;-73
2021/12/28 07:09:35;;;;;;;22.57;3.27;;;;;;;;;;5029602;28;20378;-72
2021/12/28 07:12:01;;;;;;;23.58;3.42;;;;;;;;;;5002927;28;20069;-72
2021/12/28 07:14:28;;;;;;;20.73;4.17;;;;;;;;;;5008284;28;20037;-72
2021/12/28 07:16:54;;;;;;;27.33;3.40;;;;;;;;;;5004941;28;20177;-72
2021/12/28 07:19:20;;;;;;;18.35;3.78;;;;;;;;;;5006406;28;20060;-72
2021/12/28 07:21:45;;;;;;;30.27;4.57;;;;;;;;;;4996618;28;20121;-72
2021/12/28 07:24:10;;;;;;;30.63;3.83;;;;;;;;;;5001921;28;20054;-72
2021/12/28 07:26:36;;;;;;;35.07;4.40;;;;;;;;;;5001010;28;20041;-72
2021/12/28 07:29:03;;;;;;;31.30;6.27;;;;;;;;;;5003157;28;20397;-73
2021/12/28 07:31:29;;;;;;;;;;;;;;;;;;4997347;28;20042;-74
2021/12/28 07:33:54;;;;;;;28.42;4.00;;;;;;;;;;4999218;28;19924;-74
2021/12/28 07:36:20;;;;;;;32.50;4.43;;;;;;;;;;4998353;28;20061;-74
2021/12/28 07:38:46;;;;;;;27.90;3.90;;;;;;;;;;4999712;28;20030;-74
2021/12/28 07:41:11;;;;;;;24.40;4.20;;;;;;;;;;4997477;28;20042;-74
2021/12/28 07:43:37;;;;;;;37.57;7.07;;;;;;;;;;5003047;28;20507;-72
2021/12/28 07:46:03;;;;;;;35.30;3.50;;;;;;;;;;4999254;28;20038;-72
2021/12/28 07:48:28;;;;;;;32.80;4.67;;;;;;;;;;5000367;28;20498;-72
2021/12/28 07:50:54;;;;;;;25.73;5.00;;;;;;;;;;5000595;28;20109;-72
2021/12/28 07:53:19;;;;;;;23.30;4.87;;;;;;;;;;5000875;28;20038;-72
2021/12/28 07:55:44;;;;;;;35.20;3.70;;;;;;;;;;4996358;28;20345;-72
2021/12/28 07:58:10;;;;;;;31.63;5.77;;;;;;;;;;5005991;28;20035;-73
2021/12/28 08:00:35;;;;;;;15.37;2.97;;;;;;;;;;5007791;28;20038;-72
2021/12/28 08:03:03;;;;;;;17.37;2.83;;;;;;;;;;5005412;28;20224;-72
2021/12/28 08:05:29;;;;;;;22.38;3.63;;;;;;;;;;5026272;28;20061;-72
2021/12/28 08:07:55;;;;;;;32.90;4.07;;;;;;;;;;5023247;28;20042;-72
2021/12/28 08:10:22;;;;;;;22.70;3.93;;;;;;;;;;5011861;28;20502;-72
2021/12/28 08:12:49;;;;;;;16.60;3.65;;;;;;;;;;5009124;28;20025;-72
2021/12/28 08:15:15;;;;;;;20.20;4.00;;;;;;;;;;5011254;28;20080;-72
2021/12/28 08:17:41;;;;;;;12.53;3.03;;;;;;;;;;5008177;28;20111;-72
2021/12/28 08:20:08;;;;;;;22.93;3.80;;;;;;;;;;5024337;28;20153;-72
2021/12/28 08:22:34;;;;;;;12.73;2.42;;;;;;;;;;4999862;28;20065;-72
2021/12/28 08:24:59;;;;;;;10.80;2.10;;;;;;;;;;5025687;28;20100;-72
2021/12/28 08:27:26;;;;;;;25.23;4.90;;;;;;;;;;5012582;28;20033;-72
2021/12/28 08:29:52;;;;;;;13.50;2.33;;;;;;;;;;5025783;28;20467;-72
2021/12/28 08:32:17;;;;;;;27.90;3.33;;;;;;;;;;5005197;28;20038;-75
2021/12/28 08:34:43;;;;;;;11.87;2.50;;;;;;;;;;5018483;28;20064;-74
2021/12/28 08:37:09;;;;;;;12.87;2.37;;;;;;;;;;5002409;28;20065;-74
2021/12/28 08:39:35;;;;;;;16.67;2.33;;;;;;;;;;5000579;28;20061;-74
2021/12/28 08:42:00;;;;;;;16.17;2.28;;;;;;;;;;5005693;28;20517;-74
2021/12/28 08:44:27;;;;;;;5.70;1.87;;;;;;;;;;5006786;28;20113;-74
2021/12/28 08:46:53;;;;;;;12.82;1.80;;;;;;;;;;5008881;28;20364;-74
2021/12/28 08:49:19;;;;;;;12.63;1.90;;;;;;;;;;5023047;28;20032;-74
2021/12/28 08:51:44;;;;;;;13.27;1.37;;;;;;;;;;5000991;28;20270;-73
2021/12/28 08:54:10;;;;;;;10.10;2.27;;;;;;;;;;4997908;28;20389;-72
2021/12/28 08:56:35;;;;;;;5.80;1.10;;;;;;;;;;4997425;28;20498;-73
2021/12/28 08:59:01;;;;;;;14.00;1.40;;;;;;;;;;4997731;28;20087;-73
2021/12/28 09:01:26;;;;;;;5.50;1.03;;;;;;;;;;5005083;28;20355;-73
2021/12/28 09:03:52;;;;;;;6.73;1.00;;;;;;;;;;5002632;28;20019;-73
2021/12/28 09:06:18;;;;;;;4.50;0.90;;;;;;;;;;5000970;28;20057;-74
2021/12/28 09:08:44;;;;;;;4.07;0.90;;;;;;;;;;4996834;28;20031;-73
2021/12/28 09:11:09;;;;;;;5.10;0.80;;;;;;;;;;5001670;28;20117;-73
2021/12/28 09:13:36;;;;;;;5.17;0.77;;;;;;;;;;5011592;28;20030;-73
2021/12/28 09:16:02;;;;;;;7.80;1.33;;;;;;;;;;5011273;28;20034;-73
2021/12/28 09:18:28;;;;;;;4.20;0.55;;;;;;;;;;4996904;28;20030;-73
2021/12/28 09:20:55;;;;;;;5.50;0.80;;;;;;;;;;5002035;28;20489;-74
2021/12/28 09:23:20;;;;;;;3.50;0.93;;;;;;;;;;4999024;28;20089;-73
2021/12/28 09:25:45;;;;;;;3.37;0.83;;;;;;;;;;5001423;28;20037;-73
2021/12/28 09:28:11;;;;;;;7.03;0.50;;;;;;;;;;5000425;28;20050;-75
2021/12/28 09:30:38;;;;;;;2.50;0.93;;;;;;;;;;4999559;28;20497;-73
2021/12/28 09:33:03;;;;;;;;;;;;;;;;;;4998684;28;20386;-73
2021/12/28 09:35:29;;;;;;;3.67;0.50;;;;;;;;;;5010029;28;19917;-73
2021/12/28 09:37:54;;;;;;;1.90;0.40;;;;;;;;;;5004516;28;20038;-73
2021/12/28 09:40:20;;;;;;;3.90;0.97;;;;;;;;;;5005969;28;20057;-74
2021/12/28 09:42:45;;;;;;;6.83;0.70;;;;;;;;;;4999545;28;20061;-73
2021/12/28 09:45:13;;;;;;;1.73;0.60;;;;;;;;;;5003305;28;20034;-73
2021/12/28 09:47:41;;;;;;;4.22;0.82;;;;;;;;;;5009710;28;20402;-73
2021/12/28 09:50:08;;;;;;;4.18;1.50;;;;;;;;;;5011522;28;20034;-73
2021/12/28 09:52:33;;;;;;;2.63;1.27;;;;;;;;;;5008447;28;20080;-73
2021/12/28 09:54:59;;;;;;;2.67;0.60;;;;;;;;;;5019021;28;20034;-73
2021/12/28 09:57:24;;;;;;;4.73;0.60;;;;;;;;;;5000193;28;20042;-73
2021/12/28 09:59:50;;;;;;;2.80;0.40;;;;;;;;;;5001911;28;20442;-73
2021/12/28 10:02:16;;;;;;;1.17;0.60;;;;;;;;;;5015146;28;20022;-73
2021/12/28 10:05:04;;;;;;;2.80;0.73;;;;;;;;;;5000324;28;20030;-73
2021/12/28 10:07:33;;;;;;;5.78;0.70;;;;;;;;;;5006002;28;20045;-73
2021/12/28 10:09:59;;;;;;;3.38;1.15;;;;;;;;;;5005342;28;20474;-73
2021/12/28 10:12:38;;;;;;;4.97;0.90;;;;;;;;;;5027451;28;20073;-73
2021/12/28 10:15:08;;;;;;;2.83;0.57;;;;;;;;;;5012945;28;20038;-73
2021/12/28 10:17:35;;;;;;;1.83;0.50;;;;;;;;;;5022158;28;20488;-73
2021/12/28 10:20:03;;;;;;;1.33;0.40;;;;;;;;;;5008451;28;20026;-73
2021/12/28 10:22:33;;;;;;;1.92;0.60;;;;;;;;;;5017136;28;20092;-73
2021/12/28 10:25:01;;;;;;;5.35;0.57;;;;;;;;;;5006384;28;20041;-73
2021/12/28 10:27:29;;;;;;;0.80;0.40;;;;;;;;;;5006694;28;20030;-73
2021/12/28 10:29:56;;;;;;;2.40;0.60;;;;;;;;;;5022339;28;20101;-73
2021/12/28 10:32:28;;;;;;;4.68;0.50;;;;;;;;;;5020838;28;20033;-73
2021/12/28 10:35:03;;;;;;;4.75;1.05;;;;;;;;;;5007883;28;20094;-73
2021/12/28 10:37:34;;;;;;;2.65;0.80;;;;;;;;;;5014266;28;20069;-73
2021/12/28 10:40:05;;;;;;;1.95;0.77;;;;;;;;;;5013902;28;20097;-73
2021/12/28 10:42:46;;;;;;;2.33;0.47;;;;;;;;;;5007248;28;20404;-73
2021/12/28 10:45:48;;;;;;;5.78;1.25;;;;;;;;;;5026856;28;20045;-73
2021/12/28 10:48:20;;;;;;;5.72;0.90;;;;;;;;;;4988572;28;20406;-74
2021/12/28 10:50:45;;;;;;;5.68;0.98;;;;;;;;;;5019840;28;20037;-73
2021/12/28 10:53:33;;;;;;;2.23;0.80;;;;;;;;;;4998396;28;20120;-73
2021/12/28 10:56:00;;;;;;;3.30;1.48;;;;;;;;;;5000344;28;20037;-73
2021/12/28 10:58:31;;;;;;;;;;;;;;;;;;5004569;28;20026;-73
2021/12/28 11:01:04;;;;;;;2.85;0.68;;;;;;;;;;4998515;28;19928;-73
2021/12/28 11:03:33;;;;;;;2.35;0.68;;;;;;;;;;4998752;28;20117;-73
2021/12/28 11:06:04;;;;;;;2.72;1.25;;;;;;;;;;4996581;28;20081;-73
2021/12/28 11:08:30;;;;;;;5.15;0.73;;;;;;;;;;5003789;28;20569;-73
2021/12/28 11:10:59;;;;;;;1.10;0.40;;;;;;;;;;5002474;28;20125;-73
2021/12/28 11:13:28;;;;;;;2.67;0.68;;;;;;;;;;5000857;28;20399;-73
2021/12/28 11:15:53;;;;;;;3.88;1.08;;;;;;;;;;5011174;28;20543;-73
2021/12/28 11:18:40;;;;;;;2.63;0.43;;;;;;;;;;5000046;28;20129;-73
2021/12/28 11:21:13;;;;;;;4.05;0.60;;;;;;;;;;4995441;28;20435;-73
2021/12/28 11:23:39;;;;;;;2.85;0.70;;;;;;;;;;5011717;28;20257;-73
2021/12/28 11:26:16;;;;;;;3.47;0.60;;;;;;;;;;5025208;28;20030;-73
2021/12/28 11:28:51;;;;;;;1.42;0.30;;;;;;;;;;5027355;28;20267;-73
2021/12/28 11:31:18;;;;;;;3.50;0.73;;;;;;;;;;5000169;28;20058;-74
2021/12/28 11:33:58;;;;;;;3.90;0.70;;;;;;;;;;5009522;28;20033;-73
2021/12/28 11:36:27;;;;;;;1.58;0.40;;;;;;;;;;5019373;28;20072;-73
2021/12/28 11:38:54;;;;;;;3.28;0.85;;;;;;;;;;5005390;28;20033;-73
2021/12/28 11:41:21;;;;;;;3.10;0.50;;;;;;;;;;4998210;28;20105;-74
2021/12/28 11:43:47;;;;;;;1.80;0.40;;;;;;;;;;5001036;28;20478;-73
2021/12/28 11:46:14;;;;;;;1.08;0.40;;;;;;;;;;4998366;28;20038;-73
2021/12/28 11:48:40;;;;;;;3.08;0.93;;;;;;;;;;4998815;28;20376;-73
2021/12/28 11:51:05;;;;;;;1.17;0.70;;;;;;;;;;5017295;28;20487;-75
2021/12/28 11:53:35;;;;;;;1.00;0.50;;;;;;;;;;5014219;28;20116;-73
2021/12/28 11:56:01;;;;;;;1.10;0.43;;;;;;;;;;5010742;28;20080;-72
2021/12/28 11:58:52;;;;;;;3.67;0.57;;;;;;;;;;5008534;28;20109;-73
2021/12/28 12:01:36;;;;;;;1.98;0.60;;;;;;;;;;5001348;28;20087;-76
2021/12/28 12:04:02;;;;;;;2.95;0.30;;;;;;;;;;5008041;28;20034;-75
2021/12/28 12:07:04;;;;;;;1.47;0.40;;;;;;;;;;5022889;28;20049;-75
2021/12/28 12:09:31;;;;;;;2.10;0.55;;;;;;;;;;4988752;28;20044;-75
2021/12/28 12:12:13;;;;;;;1.42;0.40;;;;;;;;;;5004970;28;20053;-75
2021/12/28 12:14:50;;;;;;;2.38;0.50;;;;;;;;;;5021805;28;20088;-72
2021/12/28 12:17:28;;;;;;;6.70;0.70;;;;;;;;;;5009220;28;20402;-72
2021/12/28 12:19:58;;;;;;;2.30;0.52;;;;;;;;;;5004051;28;20133;-72
2021/12/28 12:22:30;;;;;;;1.15;0.50;;;;;;;;;;5017704;28;20046;-72
2021/12/28 12:24:59;;;;;;;3.03;1.05;;;;;;;;;;5001893;28;20058;-72
2021/12/28 12:27:41;;;;;;;3.33;0.70;;;;;;;;;;5012997;28;20479;-73
2021/12/28 12:30:32;;;;;;;1.17;0.70;;;;;;;;;;4997322;28;20459;-72
2021/12/28 12:32:58;;;;;;;1.30;0.80;;;;;;;;;;4989625;28;20058;-75
2021/12/28 12:35:32;;;;;;;1.53;0.40;;;;;;;;;;5000635;28;20114;-74
2021/12/28 12:38:26;;;;;;;0.73;0.50;;;;;;;;;;4991414;28;20128;-74
2021/12/28 12:41:05;;;;;;;1.40;0.52;;;;;;;;;;4994410;28;20045;-75
2021/12/28 12:43:48;;;;;;;3.65;0.68;;;;;;;;;;4996196;28;20034;-74
2021/12/28 12:46:33;;;;;;;4.10;0.90;;;;;;;;;;5013579;28;20039;-75
2021/12/28 12:49:11;;;;;;;1.65;0.47;;;;;;;;;;5002781;28;20045;-75
2021/12/28 12:51:58;;;;;;;4.15;1.30;;;;;;;;;;4990511;28;20038;-74
2021/12/28 12:54:27;;;;;;;1.15;0.50;;;;;;;;;;5006465;28;20042;-71
2021/12/28 12:56:54;;;;;;;1.80;0.50;;;;;;;;;;5019246;28;20049;-72
2021/12/28 12:59:43;;;;;;;1.48;0.70;;;;;;;;;;4995250;28;20447;-72
2021/12/28 13:02:12;;;;;;;2.05;0.52;;;;;;;;;;5018524;28;20490;-74
2021/12/28 13:04:37;;;;;;;2.38;0.50;;;;;;;;;;5001283;28;20038;-74
2021/12/28 13:07:12;;;;;;;3.20;1.43;;;;;;;;;;5005567;28;20378;-74
2021/12/28 13:09:40;;;;;;;2.08;1.17;;;;;;;;;;5008478;28;20088;-74
2021/12/28 13:12:14;;;;;;;0.98;0.57;;;;;;;;;;4995425;28;20045;-71
2021/12/28 13:14:40;;;;;;;0.88;0.47;;;;;;;;;;5026423;28;20080;-71
2021/12/28 13:17:14;;;;;;;1.60;1.10;;;;;;;;;;4999125;28;20065;-71
2021/12/28 13:20:06;;;;;;;1.98;0.80;;;;;;;;;;4998297;28;20530;-71
2021/12/28 13:22:35;;;;;;;2.33;1.08;;;;;;;;;;4997996;28;20054;-72
2021/12/28 13:25:01;;;;;;;3.60;0.63;;;;;;;;;;5006931;28;20347;-71
2021/12/28 13:27:27;;;;;;;1.43;0.70;;;;;;;;;;5011051;28;20045;-72
2021/12/28 13:29:55;;;;;;;3.50;0.43;;;;;;;;;;5005174;28;20268;-72
2021/12/28 13:32:30;;;;;;;1.48;0.47;;;;;;;;;;4999338;28;20112;-72
2021/12/28 13:35:06;;;;;;;3.08;0.57;;;;;;;;;;4997797;28;20038;-72
2021/12/28 13:37:42;;;;;;;2.83;0.80;;;;;;;;;;5003534;28;20072;-72
2021/12/28 13:40:27;;;;;;;0.73;0.40;;;;;;;;;;4981713;28;20038;-72
2021/12/28 13:42:59;;;;;;;2.17;0.70;;;;;;;;;;5004718;28;20026;-71
2021/12/28 13:45:46;;;;;;;0.77;0.32;;;;;;;;;;5007731;28;20472;-72
2021/12/28 13:48:20;;;;;;;1.43;0.50;;;;;;;;;;4994735;28;20034;-73
2021/12/28 13:50:59;;;;;;;1.25;0.40;;;;;;;;;;4998681;28;20483;-72
2021/12/28 13:53:56;;;;;;;2.38;1.65;;;;;;;;;;4997368;28;20030;-71
2021/12/28 13:56:33;;;;;;;3.03;0.65;;;;;;;;;;4989631;28;20050;-72
2021/12/28 13:58:58;;;;;;;1.25;0.65;;;;;;;;;;4998166;28;20030;-72
2021/12/28 14:01:27;;;;;;;2.60;0.63;;;;;;;;;;4999173;28;20067;-72
2021/12/28 14:03:54;;;;;;;1.90;0.70;;;;;;;;;;4998993;28;20053;-71
2021/12/28 14:06:19;;;;;;;0.82;0.55;;;;;;;;;;5000229;28;20045;-72
2021/12/28 14:08:45;;;;;;;2.87;0.90;;;;;;;;;;5000627;28;20050;-72
2021/12/28 14:11:10;;;;;;;1.73;1.20;;;;;;;;;;5002116;28;20030;-72
2021/12/28 14:13:38;;;;;;;2.93;0.80;;;;;;;;;;5000487;28;20089;-71
2021/12/28 14:16:07;;;;;;;2.88;1.42;;;;;;;;;;4998761;28;20042;-74
2021/12/28 14:18:51;;;;;;;7.95;4.00;;;;;;;;;;5005746;28;20022;-75
2021/12/28 14:21:22;;;;;;;3.92;2.30;;;;;;;;;;4989682;28;20034;-74
2021/12/28 14:24:02;;;;;;;5.03;1.70;;;;;;;;;;4995957;28;20081;-75
2021/12/28 14:26:34;;;;;;;3.42;1.40;;;;;;;;;;5013743;28;20088;-74
2021/12/28 14:29:10;;;;;;;2.17;1.20;;;;;;;;;;5016396;28;20034;-74
2021/12/28 14:31:35;;;;;;;1.85;1.00;;;;;;;;;;5001458;28;20034;-74
2021/12/28 14:34:00;;;;;;;2.20;1.07;;;;;;;;;;5001078;28;20038;-74
2021/12/28 14:36:37;;;;;;;1.30;0.90;;;;;;;;;;5014059;28;20033;-74
2021/12/28 14:39:20;;;;;;;0.95;0.63;;;;;;;;;;5001482;28;20086;-74
2021/12/28 14:41:49;;;;;;;1.45;0.63;;;;;;;;;;5005195;28;20113;-72